Time;durP1;ratioP1;P1;durP2;ratioP2;P2;SDS_P1;SDS_P2;PMS_P1;PMS_P2;Temp;Humidity;BMP_temperature;BMP_pressure;BME280_temperature;BME280_humidity;BME280_pressure;Samples;Min_cycle;Max_cycle;Signal;HPM_P1;HPM_P2
2022/09/04 00:00:11;;;;;;;8.63;5.13;;;21.50;57.20;;;;;;5061261;28;20032;-69
2022/09/04 00:02:51;;;;;;;8.95;5.40;;;21.50;57.30;;;;;;5072908;28;20411;-69
2022/09/04 00:05:27;;;;;;;9.63;5.53;;;21.40;57.30;;;;;;5066102;28;20029;-69
2022/09/04 00:08:14;;;;;;;7.85;4.72;;;21.40;57.50;;;;;;5064973;28;20020;-69
2022/09/04 00:11:02;;;;;;;7.63;4.95;;;21.40;57.60;;;;;;5067675;28;20434;-69
2022/09/04 00:13:41;;;;;;;9.65;5.57;;;21.40;57.70;;;;;;5067388;28;20039;-69
2022/09/04 00:16:08;;;;;;;9.55;5.57;;;21.40;57.90;;;;;;5091484;28;20117;-69
2022/09/04 00:18:45;;;;;;;11.43;5.43;;;21.40;58.00;;;;;;5085060;28;20412;-69
2022/09/04 00:21:32;;;;;;;8.30;5.35;;;21.40;58.30;;;;;;5092930;28;20361;-69
2022/09/04 00:24:03;;;;;;;7.72;5.20;;;21.40;58.40;;;;;;5065976;28;20111;-69
2022/09/04 00:27:16;;;;;;;9.52;5.72;;;21.30;58.30;;;;;;5092111;28;20039;-69
2022/09/04 00:30:01;;;;;;;8.38;5.93;;;21.40;58.50;;;;;;4957736;28;20413;-69
2022/09/04 00:32:36;;;;;;;9.02;5.07;;;21.30;58.60;;;;;;4973891;28;20045;-69
2022/09/04 00:35:19;;;;;;;9.52;5.60;;;21.30;58.70;;;;;;4972853;28;20345;-69
2022/09/04 00:37:57;;;;;;;9.52;5.72;;;21.30;59.00;;;;;;4974036;28;20679;-69
2022/09/04 00:40:36;;;;;;;9.70;5.75;;;21.30;59.10;;;;;;4969112;28;20039;-69
2022/09/04 00:43:39;;;;;;;11.27;6.25;;;21.30;59.20;;;;;;4950796;28;20030;-69
2022/09/04 00:46:38;;;;;;;9.45;5.88;;;21.30;59.30;;;;;;4965681;28;20047;-69
2022/09/04 00:49:22;;;;;;;9.85;5.57;;;21.20;59.50;;;;;;4954088;28;20045;-69
2022/09/04 00:52:13;;;;;;;8.68;5.65;;;21.20;59.70;;;;;;4973800;28;20527;-69
2022/09/04 00:55:03;;;;;;;9.30;5.88;;;21.20;59.90;;;;;;4961722;28;20085;-69
2022/09/04 00:57:53;;;;;;;10.02;6.70;;;21.20;60.10;;;;;;4973750;28;20027;-69
2022/09/04 01:00:21;;;;;;;9.30;5.95;;;21.10;60.40;;;;;;5033802;28;20153;-69
2022/09/04 01:03:13;;;;;;;9.98;6.32;;;21.10;60.60;;;;;;5058608;28;20023;-69
2022/09/04 01:05:55;;;;;;;9.77;6.45;;;21.10;61.00;;;;;;5050856;28;20107;-69
2022/09/04 01:08:41;;;;;;;9.40;6.18;;;21.10;61.30;;;;;;5082141;28;20039;-69
2022/09/04 01:11:25;;;;;;;8.90;6.38;;;21.00;61.30;;;;;;5087541;28;20024;-69
2022/09/04 01:14:02;;;;;;;9.57;6.43;;;21.00;61.60;;;;;;5083247;28;20035;-69
2022/09/04 01:16:44;;;;;;;10.05;6.80;;;21.10;61.70;;;;;;5054672;28;20090;-69
2022/09/04 01:19:48;;;;;;;10.93;6.70;;;21.10;62.00;;;;;;5065770;28;20094;-69
2022/09/04 01:22:58;;;;;;;9.07;6.05;;;21.10;62.10;;;;;;5071871;28;20037;-69
2022/09/04 01:26:01;;;;;;;11.18;6.50;;;21.10;62.20;;;;;;5042969;28;20112;-69
2022/09/04 01:29:04;;;;;;;10.80;5.88;;;21.00;62.30;;;;;;5072477;28;20031;-69
2022/09/04 01:31:36;;;;;;;8.98;5.95;;;21.00;62.50;;;;;;5064980;28;20020;-69
2022/09/04 01:34:39;;;;;;;9.60;6.30;;;21.00;62.50;;;;;;5069427;28;20036;-69
2022/09/04 01:37:51;;;;;;;10.38;6.28;;;21.00;62.70;;;;;;5069281;28;20024;-69
2022/09/04 01:40:48;;;;;;;9.32;6.47;;;21.00;62.90;;;;;;4979907;28;20067;-69
2022/09/04 01:43:17;;;;;;;9.40;6.50;;;21.00;63.00;;;;;;4981656;28;20038;-69
2022/09/04 01:46:19;;;;;;;9.25;6.55;;;21.00;63.00;;;;;;4992636;28;20096;-69
2022/09/04 01:48:55;;;;;;;10.93;7.05;;;21.00;63.20;;;;;;4981004;28;20045;-69
2022/09/04 01:51:43;;;;;;;9.00;6.60;;;20.90;63.30;;;;;;4992758;28;20026;-69
2022/09/04 01:54:15;;;;;;;9.85;6.55;;;20.90;63.40;;;;;;4988684;28;20098;-69
2022/09/04 01:56:54;;;;;;;9.38;5.75;;;20.90;63.40;;;;;;4978212;28;20035;-69
2022/09/04 01:59:31;;;;;;;8.77;6.10;;;20.90;63.70;;;;;;4977691;28;20151;-69
2022/09/04 02:02:38;;;;;;;10.27;6.90;;;20.90;63.80;;;;;;4965620;28;20085;-69
2022/09/04 02:05:26;;;;;;;9.73;6.55;;;20.90;63.90;;;;;;4966056;28;20043;-69
2022/09/04 02:08:35;;;;;;;10.70;6.22;;;20.90;64.00;;;;;;4989206;28;20034;-69
2022/09/04 02:11:26;;;;;;;10.40;7.10;;;20.80;64.10;;;;;;4988158;28;20038;-69
2022/09/04 02:13:55;;;;;;;10.13;7.35;;;20.80;64.20;;;;;;4983812;28;20047;-69
2022/09/04 02:16:46;;;;;;;11.27;7.05;;;20.80;64.40;;;;;;5033885;28;20059;-69
2022/09/04 02:19:36;;;;;;;9.63;6.43;;;20.80;64.60;;;;;;5061294;28;20024;-69
2022/09/04 02:22:35;;;;;;;10.13;6.93;;;20.80;64.70;;;;;;5065665;28;20033;-69
2022/09/04 02:25:19;;;;;;;10.48;6.97;;;20.80;64.80;;;;;;5076663;28;20024;-69
2022/09/04 02:27:57;;;;;;;12.35;7.00;;;20.70;64.90;;;;;;5073868;28;20029;-69
2022/09/04 02:30:23;;;;;;;9.63;6.75;;;20.70;65.00;;;;;;5072525;28;20036;-69
2022/09/04 02:32:55;;;;;;;10.63;6.82;;;20.70;65.00;;;;;;5074262;28;20036;-69
2022/09/04 02:35:29;;;;;;;10.88;7.50;;;20.70;65.20;;;;;;5072289;28;20105;-69
2022/09/04 02:38:21;;;;;;;9.80;6.95;;;20.70;65.40;;;;;;5072855;28;20132;-69
2022/09/04 02:40:59;;;;;;;10.55;6.90;;;20.70;66.20;;;;;;5066323;28;20353;-69
2022/09/04 02:43:31;;;;;;;11.50;8.25;;;20.60;65.60;;;;;;5067868;28;20455;-69
2022/09/04 02:46:02;;;;;;;10.00;7.40;;;20.60;65.60;;;;;;5076106;28;20036;-69
2022/09/04 02:48:28;;;;;;;;;;;20.60;65.70;;;;;;5068417;28;20029;-69
2022/09/04 02:51:12;;;;;;;11.00;7.22;;;20.60;65.50;;;;;;5075612;28;19991;-69
2022/09/04 02:53:40;;;;;;;10.45;7.35;;;20.50;65.70;;;;;;5070998;28;20377;-69
2022/09/04 02:56:22;;;;;;;12.18;8.05;;;20.50;65.70;;;;;;5073725;28;20445;-69
2022/09/04 02:59:02;;;;;;;11.15;8.02;;;20.50;66.00;;;;;;5057730;28;20024;-69
2022/09/04 03:01:34;;;;;;;11.13;7.97;;;20.50;66.10;;;;;;5066346;28;20386;-69
2022/09/04 03:04:03;;;;;;;10.65;7.68;;;20.50;66.20;;;;;;5073253;28;20032;-69
2022/09/04 03:06:42;;;;;;;11.10;7.97;;;20.50;66.20;;;;;;5074490;28;20495;-69
2022/09/04 03:09:17;;;;;;;12.10;7.75;;;20.50;66.30;;;;;;5075388;28;20052;-69
2022/09/04 03:11:52;;;;;;;11.23;7.40;;;20.50;66.40;;;;;;5072335;28;20369;-69
2022/09/04 03:14:33;;;;;;;12.68;8.40;;;20.50;66.50;;;;;;5074495;28;20025;-69
2022/09/04 03:17:28;;;;;;;11.00;8.27;;;20.40;66.50;;;;;;5076310;28;20076;-69
2022/09/04 03:20:08;;;;;;;11.48;8.30;;;20.40;66.60;;;;;;5091657;28;20093;-69
2022/09/04 03:22:49;;;;;;;10.88;8.35;;;20.40;66.70;;;;;;5075481;28;20036;-69
2022/09/04 03:25:24;;;;;;;11.63;8.52;;;20.40;67.50;;;;;;5054442;28;20039;-69
2022/09/04 03:27:50;;;;;;;11.75;8.48;;;20.40;66.90;;;;;;5077971;28;20056;-69
2022/09/04 03:30:17;;;;;;;13.23;9.00;;;20.30;66.90;;;;;;5069847;28;20128;-69
2022/09/04 03:32:56;;;;;;;11.00;8.23;;;20.30;67.10;;;;;;5091712;28;20367;-69
2022/09/04 03:36:02;;;;;;;11.05;8.38;;;20.30;67.20;;;;;;5095234;28;20032;-69
2022/09/04 03:38:56;;;;;;;11.43;8.32;;;20.30;67.20;;;;;;5053844;28;20056;-69
2022/09/04 03:41:33;;;;;;;12.48;8.65;;;20.30;67.30;;;;;;5090568;28;20035;-69
2022/09/04 03:44:19;;;;;;;13.02;9.05;;;20.30;67.40;;;;;;5087391;28;20032;-68
2022/09/04 03:46:57;;;;;;;13.55;9.07;;;20.20;67.40;;;;;;5080472;28;20092;-68
2022/09/04 03:49:41;;;;;;;12.27;9.60;;;20.20;67.50;;;;;;5071132;28;20030;-67
2022/09/04 03:52:26;;;;;;;12.95;9.40;;;20.20;67.70;;;;;;5077454;28;20455;-67
2022/09/04 03:54:57;;;;;;;12.52;8.82;;;20.20;67.80;;;;;;5094384;28;20028;-67
2022/09/04 03:57:53;;;;;;;13.77;10.27;;;20.20;67.90;;;;;;5090844;28;20028;-68
2022/09/04 04:00:21;;;;;;;11.70;8.88;;;20.20;68.00;;;;;;4981681;28;20038;-68
2022/09/04 04:03:24;;;;;;;12.80;10.13;;;20.20;68.00;;;;;;5000669;28;20042;-68
2022/09/04 04:06:07;;;;;;;12.93;9.27;;;20.20;68.10;;;;;;4987879;28;20105;-68
2022/09/04 04:08:43;;;;;;;13.85;9.75;;;20.20;68.10;;;;;;5003820;28;20103;-68
2022/09/04 04:11:37;;;;;;;14.63;9.93;;;20.20;68.20;;;;;;5006193;28;20121;-68
2022/09/04 04:14:40;;;;;;;12.82;9.45;;;20.20;68.10;;;;;;5003902;28;20413;-68
2022/09/04 04:17:37;;;;;;;14.50;10.00;;;20.10;68.10;;;;;;5006466;28;20073;-68
2022/09/04 04:20:28;;;;;;;12.45;9.60;;;20.10;68.30;;;;;;4983306;28;20366;-68
2022/09/04 04:22:59;;;;;;;12.90;9.88;;;20.10;68.30;;;;;;5001988;28;20531;-68
2022/09/04 04:25:41;;;;;;;13.13;10.70;;;20.10;68.30;;;;;;5007992;28;20053;-68
2022/09/04 04:28:40;;;;;;;11.50;9.48;;;20.10;68.40;;;;;;5006466;28;20066;-68
2022/09/04 04:31:25;;;;;;;14.05;10.15;;;20.10;68.40;;;;;;5009213;28;20050;-68
2022/09/04 04:34:20;;;;;;;13.75;10.52;;;20.10;68.50;;;;;;5002588;28;20042;-68
2022/09/04 04:37:03;;;;;;;12.55;9.43;;;20.10;68.60;;;;;;5028299;28;20040;-68
2022/09/04 04:39:54;;;;;;;13.93;10.45;;;20.00;68.60;;;;;;5084852;28;20028;-68
2022/09/04 04:42:31;;;;;;;12.93;10.02;;;20.00;68.80;;;;;;5054919;28;20431;-68
2022/09/04 04:48:14;;;;;;;13.75;10.23;;;20.00;69.50;;;;;;5085852;28;20042;-68
2022/09/04 04:50:46;;;;;;;15.60;10.65;;;20.00;69.00;;;;;;5066625;28;20044;-68
2022/09/04 04:54:00;;;;;;;14.30;10.40;;;20.00;69.00;;;;;;5068102;28;20034;-68
2022/09/04 04:56:44;;;;;;;14.73;10.52;;;20.00;69.10;;;;;;5065657;28;20032;-68
2022/09/04 04:59:33;;;;;;;12.57;10.18;;;20.00;69.20;;;;;;5074854;28;20032;-68
2022/09/04 05:02:20;;;;;;;14.27;10.07;;;19.90;69.20;;;;;;5067150;28;20043;-67
2022/09/04 05:05:12;;;;;;;13.23;10.52;;;19.90;69.20;;;;;;5084179;28;20396;-68
2022/09/04 05:08:08;;;;;;;15.63;11.90;;;19.90;69.20;;;;;;5069299;28;20028;-68
2022/09/04 05:10:53;;;;;;;13.43;10.98;;;19.90;69.30;;;;;;5086884;28;20036;-66
2022/09/04 05:13:22;;;;;;;13.05;10.93;;;19.90;69.30;;;;;;5092989;28;20352;-68
2022/09/04 05:16:17;;;;;;;14.52;11.45;;;19.90;69.30;;;;;;5074551;28;20055;-68
2022/09/04 05:18:48;;;;;;;13.10;10.15;;;19.90;69.50;;;;;;5064651;28;20038;-68
2022/09/04 05:21:30;;;;;;;14.10;10.63;;;19.90;69.50;;;;;;5081430;28;20406;-68
2022/09/04 05:24:04;;;;;;;14.55;11.30;;;20.00;69.50;;;;;;5076355;28;20039;-68
2022/09/04 05:26:44;;;;;;;13.80;10.88;;;20.00;69.60;;;;;;5076454;28;20043;-68
2022/09/04 05:29:27;;;;;;;14.17;10.50;;;20.00;69.70;;;;;;5093657;28;20060;-68
2022/09/04 05:31:57;;;;;;;13.80;11.02;;;20.00;69.60;;;;;;5085361;28;20300;-68
2022/09/04 05:34:48;;;;;;;14.00;11.52;;;20.00;69.50;;;;;;5068945;28;20035;-68
2022/09/04 05:37:28;;;;;;;14.85;10.82;;;20.00;69.60;;;;;;5080721;28;20028;-68
2022/09/04 05:40:30;;;;;;;14.05;10.70;;;20.00;69.60;;;;;;5094144;28;20024;-68
2022/09/04 05:43:57;;;;;;;13.60;10.75;;;20.10;69.50;;;;;;4996866;28;20033;-68
2022/09/04 05:46:49;;;;;;;14.05;10.70;;;20.10;69.50;;;;;;4973661;28;20449;-68
2022/09/04 05:49:36;;;;;;;16.05;12.07;;;20.10;69.50;;;;;;4957250;28;20113;-68
2022/09/04 05:52:21;;;;;;;13.85;10.95;;;20.10;69.60;;;;;;4973738;28;20054;-68
2022/09/04 05:55:14;;;;;;;16.33;12.13;;;20.10;69.60;;;;;;4973994;28;20051;-69
2022/09/04 05:58:17;;;;;;;16.00;11.93;;;20.20;69.70;;;;;;4949286;28;20042;-68
2022/09/04 06:00:42;;;;;;;15.50;10.65;;;20.20;69.60;;;;;;4961420;28;20031;-69
2022/09/04 06:03:29;;;;;;;13.05;10.95;;;20.20;69.60;;;;;;4969438;28;20055;-68
2022/09/04 06:06:18;;;;;;;15.15;11.07;;;20.30;69.70;;;;;;4976580;28;20039;-68
2022/09/04 06:09:22;;;;;;;14.50;11.15;;;20.30;69.70;;;;;;4967304;28;20126;-69
2022/09/04 06:12:08;;;;;;;15.02;11.68;;;20.30;69.60;;;;;;4957767;28;20459;-69
2022/09/04 06:15:21;;;;;;;16.60;11.20;;;20.30;69.50;;;;;;4974945;28;20055;-69
2022/09/04 06:18:41;;;;;;;14.90;10.50;;;20.40;69.30;;;;;;4994567;28;20092;-69
2022/09/04 06:21:25;;;;;;;16.45;11.25;;;20.50;69.10;;;;;;4956447;29;20035;-69
2022/09/04 06:24:18;;;;;;;13.73;11.00;;;20.90;68.60;;;;;;4946307;29;20102;-69
2022/09/04 06:27:08;;;;;;;13.85;10.23;;;21.40;67.70;;;;;;4951007;29;20524;-69
2022/09/04 06:29:42;;;;;;;16.02;10.80;;;21.90;66.50;;;;;;4935315;29;20054;-70
2022/09/04 06:32:26;;;;;;;14.52;11.40;;;22.20;65.70;;;;;;4923627;29;20420;-68
2022/09/04 06:34:58;;;;;;;13.45;9.73;;;22.60;64.80;;;;;;4941079;29;20189;-68
2022/09/04 06:37:45;;;;;;;13.63;10.38;;;23.00;63.80;;;;;;4939535;29;20039;-68
2022/09/04 06:40:44;;;;;;;15.48;11.05;;;23.20;63.00;;;;;;4942848;29;20360;-67
2022/09/04 06:43:31;;;;;;;13.90;10.40;;;23.40;62.60;;;;;;4939542;29;20047;-68
2022/09/04 06:46:07;;;;;;;13.43;10.85;;;23.40;62.50;;;;;;4938345;29;20027;-69
2022/09/04 06:48:56;;;;;;;13.00;10.73;;;23.30;62.60;;;;;;4956257;28;20080;-68
2022/09/04 06:51:58;;;;;;;13.30;10.90;;;23.20;62.70;;;;;;4995295;28;20095;-68
2022/09/04 06:54:40;;;;;;;13.65;10.52;;;23.00;62.90;;;;;;5011320;28;20032;-68
2022/09/04 06:57:34;;;;;;;12.20;9.38;;;23.00;63.20;;;;;;5069681;28;20089;-67
2022/09/04 07:00:10;;;;;;;12.18;9.25;;;22.90;63.30;;;;;;5084416;28;20117;-67
2022/09/04 07:02:49;;;;;;;12.02;8.88;;;22.90;63.40;;;;;;5085485;28;20033;-67
2022/09/04 07:05:31;;;;;;;12.43;9.48;;;22.90;63.50;;;;;;5085491;28;20020;-67
2022/09/04 07:08:15;;;;;;;13.15;9.80;;;22.90;63.40;;;;;;5093374;28;20488;-67
2022/09/04 07:11:08;;;;;;;13.05;9.27;;;22.90;63.20;;;;;;5088834;28;20111;-67
2022/09/04 07:14:18;;;;;;;12.90;10.20;;;23.00;63.20;;;;;;5080596;28;20026;-68
2022/09/04 07:16:53;;;;;;;12.18;8.95;;;23.00;63.20;;;;;;4982102;28;20119;-68
2022/09/04 07:19:37;;;;;;;12.32;9.73;;;23.10;63.00;;;;;;4978833;28;20125;-68
2022/09/04 07:22:21;;;;;;;13.00;9.98;;;23.20;63.60;;;;;;4996112;28;20053;-68
2022/09/04 07:25:10;;;;;;;13.38;9.73;;;23.10;63.00;;;;;;4995637;28;20360;-68
2022/09/04 07:27:41;;;;;;;14.68;9.35;;;23.20;62.90;;;;;;4979280;28;20113;-68
2022/09/04 07:30:10;;;;;;;15.35;10.65;;;23.10;63.70;;;;;;4995316;28;20117;-68
2022/09/04 07:32:59;;;;;;;12.85;10.13;;;23.00;63.30;;;;;;4994557;28;20041;-68
2022/09/04 07:35:35;;;;;;;13.15;9.55;;;22.90;63.70;;;;;;4995687;28;20065;-68
2022/09/04 07:38:32;;;;;;;11.30;9.30;;;22.80;64.10;;;;;;4979286;28;20096;-68
2022/09/04 07:41:36;;;;;;;12.85;9.65;;;22.70;64.40;;;;;;4995438;28;20447;-68
2022/09/04 07:44:12;;;;;;;12.40;8.40;;;22.60;64.50;;;;;;4965889;28;20054;-68
2022/09/04 07:46:50;;;;;;;12.25;8.57;;;22.70;64.60;;;;;;4978922;28;20050;-68
2022/09/04 07:49:28;;;;;;;11.65;8.55;;;22.70;64.50;;;;;;4978101;28;20415;-68
2022/09/04 07:52:17;;;;;;;13.48;8.65;;;23.00;64.20;;;;;;5089244;28;20028;-68
2022/09/04 07:55:12;;;;;;;11.48;7.75;;;23.30;63.50;;;;;;5096178;28;20055;-68
2022/09/04 07:58:06;;;;;;;10.63;7.60;;;23.60;62.90;;;;;;5096330;28;20042;-68
2022/09/04 08:00:51;;;;;;;11.70;7.82;;;23.90;62.30;;;;;;5096091;28;20032;-68
2022/09/04 08:03:19;;;;;;;11.57;8.38;;;24.20;61.60;;;;;;5048535;28;20077;-68
2022/09/04 08:06:01;;;;;;;10.65;7.95;;;24.50;61.00;;;;;;5061557;28;20031;-68
2022/09/04 08:08:47;;;;;;;10.98;7.53;;;24.70;60.50;;;;;;5059664;28;20028;-68
2022/09/04 08:11:44;;;;;;;10.95;8.23;;;25.00;59.90;;;;;;5095024;28;20024;-68
2022/09/04 08:14:36;;;;;;;10.38;7.63;;;25.10;59.50;;;;;;5096046;28;20044;-68
2022/09/04 08:17:23;;;;;;;11.88;7.72;;;25.20;59.10;;;;;;5084092;28;20035;-68
2022/09/04 08:20:17;;;;;;;9.80;7.05;;;25.40;59.50;;;;;;5095069;28;20048;-68
2022/09/04 08:23:11;;;;;;;10.52;7.28;;;25.60;58.70;;;;;;5067816;28;20036;-68
2022/09/04 08:26:00;;;;;;;10.15;6.82;;;25.70;58.40;;;;;;5090878;28;20024;-68
2022/09/04 08:28:55;;;;;;;9.75;6.40;;;25.90;58.10;;;;;;5063890;28;20461;-69
2022/09/04 08:31:49;;;;;;;11.15;6.85;;;26.00;57.70;;;;;;5071146;28;20334;-69
2022/09/04 08:34:56;;;;;;;9.57;6.18;;;26.20;57.40;;;;;;5082578;28;20027;-69
2022/09/04 08:37:27;;;;;;;11.70;7.15;;;26.40;57.10;;;;;;5000757;28;20056;-69
2022/09/04 08:40:13;;;;;;;9.13;6.47;;;26.40;56.80;;;;;;4979903;28;20069;-69
2022/09/04 08:43:11;;;;;;;10.38;6.25;;;26.40;56.70;;;;;;4994927;28;20057;-69
2022/09/04 08:46:14;;;;;;;9.50;5.53;;;26.50;56.40;;;;;;4994676;28;20153;-68
2022/09/04 08:49:09;;;;;;;11.45;6.93;;;26.70;56.30;;;;;;4991969;28;20085;-68
2022/09/04 08:51:59;;;;;;;9.65;6.75;;;26.70;56.10;;;;;;4988630;28;20030;-69
2022/09/04 08:54:47;;;;;;;10.00;6.22;;;26.80;55.90;;;;;;4991748;28;20436;-68
2022/09/04 08:57:50;;;;;;;9.10;5.97;;;27.00;55.70;;;;;;4993110;28;20352;-68
2022/09/04 09:00:19;;;;;;;10.65;6.80;;;27.10;55.40;;;;;;4992106;28;20396;-68
2022/09/04 09:03:22;;;;;;;9.48;5.93;;;27.20;55.10;;;;;;4977256;28;20034;-69
2022/09/04 09:06:26;;;;;;;9.07;6.18;;;27.30;55.10;;;;;;4991227;28;20058;-68
2022/09/04 09:09:33;;;;;;;11.23;5.72;;;27.40;54.90;;;;;;4989950;28;20119;-68
2022/09/04 09:12:21;;;;;;;10.52;6.40;;;27.50;54.70;;;;;;5000552;28;20046;-68
2022/09/04 09:15:12;;;;;;;8.85;5.82;;;27.70;54.40;;;;;;5070882;28;20954;-68
2022/09/04 09:17:42;;;;;;;;;;;27.70;54.30;;;;;;5071766;28;20032;-68
2022/09/04 09:20:11;;;;;;;8.98;5.05;;;27.80;54.30;;;;;;5080570;28;19958;-68
2022/09/04 09:22:49;;;;;;;9.40;5.32;;;27.90;54.10;;;;;;5068412;28;20044;-68
2022/09/04 09:25:41;;;;;;;8.20;4.93;;;28.00;53.60;;;;;;5087757;28;20099;-69
2022/09/04 09:28:29;;;;;;;7.53;4.53;;;28.10;53.40;;;;;;5080052;28;20107;-69
2022/09/04 09:31:20;;;;;;;8.63;4.88;;;28.10;53.30;;;;;;5054389;28;20035;-69
2022/09/04 09:34:05;;;;;;;7.95;4.70;;;28.20;53.10;;;;;;5063814;28;20036;-68
2022/09/04 09:36:49;;;;;;;9.77;5.57;;;28.30;52.90;;;;;;5081766;28;20032;-70
2022/09/04 09:39:44;;;;;;;8.63;4.20;;;28.40;52.50;;;;;;5087923;28;20025;-70
2022/09/04 09:42:51;;;;;;;9.13;4.63;;;28.40;52.50;;;;;;5089378;28;20036;-69
2022/09/04 09:45:59;;;;;;;8.88;4.97;;;28.40;52.10;;;;;;5007478;28;20129;-70
2022/09/04 09:48:49;;;;;;;7.40;4.25;;;28.50;52.10;;;;;;4998383;28;20022;-69
2022/09/04 09:51:56;;;;;;;8.05;3.80;;;28.60;52.00;;;;;;4991482;28;20387;-70
2022/09/04 09:54:58;;;;;;;8.43;4.45;;;28.70;51.90;;;;;;4893082;29;20031;-69
2022/09/04 09:57:57;;;;;;;9.07;4.57;;;28.80;51.40;;;;;;4900645;29;20575;-70
2022/09/04 10:00:26;;;;;;;9.20;4.55;;;28.80;51.20;;;;;;4892811;29;20136;-70
2022/09/04 10:03:10;;;;;;;8.85;4.40;;;28.90;51.30;;;;;;4904117;29;20045;-70
2022/09/04 10:05:44;;;;;;;7.25;4.20;;;28.90;50.90;;;;;;4900459;29;20446;-67
2022/09/04 10:08:37;;;;;;;9.27;4.18;;;28.90;50.90;;;;;;4898462;29;20045;-68
2022/09/04 10:11:09;;;;;;;7.13;3.75;;;29.00;50.80;;;;;;4902206;29;20036;-69
2022/09/04 10:14:12;;;;;;;7.75;3.75;;;29.00;50.60;;;;;;4900453;29;20140;-68
2022/09/04 10:16:56;;;;;;;5.97;2.92;;;29.20;50.40;;;;;;4899732;29;20048;-69
2022/09/04 10:20:01;;;;;;;7.05;3.33;;;29.30;50.50;;;;;;4901692;29;20521;-69
2022/09/04 10:23:03;;;;;;;6.60;3.53;;;29.40;50.00;;;;;;4975378;28;20100;-69
2022/09/04 10:26:01;;;;;;;6.63;2.90;;;29.40;49.80;;;;;;4993281;28;20038;-69
2022/09/04 10:29:08;;;;;;;6.70;3.10;;;29.50;49.50;;;;;;5038066;28;20044;-68
2022/09/04 10:32:15;;;;;;;8.13;3.30;;;29.60;49.30;;;;;;5078960;28;20291;-68
2022/09/04 10:35:17;;;;;;;6.50;3.53;;;29.60;49.10;;;;;;4994843;28;20162;-68
2022/09/04 10:37:57;;;;;;;6.72;3.15;;;29.70;48.80;;;;;;4977429;28;20023;-67
2022/09/04 10:40:42;;;;;;;7.00;3.20;;;29.80;48.70;;;;;;4995000;28;20022;-68
2022/09/04 10:43:19;;;;;;;7.53;3.70;;;29.80;48.50;;;;;;4978443;28;20129;-69
2022/09/04 10:45:53;;;;;;;7.43;3.05;;;29.80;48.10;;;;;;4978075;28;20121;-69
2022/09/04 10:49:00;;;;;;;8.35;3.55;;;29.80;48.10;;;;;;4995746;28;20042;-69
2022/09/04 10:51:48;;;;;;;5.53;2.88;;;29.90;47.90;;;;;;4920898;29;20134;-69
2022/09/04 10:54:28;;;;;;;5.03;2.50;;;29.90;47.70;;;;;;4945129;29;20046;-69
2022/09/04 10:57:27;;;;;;;6.38;2.80;;;29.90;47.60;;;;;;4936445;29;20036;-69
2022/09/04 11:00:30;;;;;;;4.97;2.55;;;29.90;47.40;;;;;;4937596;29;20042;-69
2022/09/04 11:03:15;;;;;;;6.28;3.00;;;29.70;47.90;;;;;;4901500;29;20040;-69
2022/09/04 11:06:01;;;;;;;5.30;2.65;;;29.70;47.90;;;;;;4899525;29;20127;-69
2022/09/04 11:09:10;;;;;;;5.45;2.67;;;29.70;48.60;;;;;;4904134;29;20053;-69
2022/09/04 11:11:49;;;;;;;4.78;2.38;;;29.90;47.70;;;;;;4943149;28;20129;-70
2022/09/04 11:14:51;;;;;;;6.40;2.47;;;30.00;47.50;;;;;;4975842;28;20039;-69
2022/09/04 11:17:47;;;;;;;5.25;2.65;;;30.20;47.30;;;;;;4969534;28;20045;-69
2022/09/04 11:20:43;;;;;;;6.32;2.60;;;30.10;47.00;;;;;;4973320;28;20031;-69
2022/09/04 11:23:41;;;;;;;5.10;2.60;;;29.90;47.10;;;;;;4959130;28;20039;-69
2022/09/04 11:26:25;;;;;;;8.07;3.28;;;29.50;47.50;;;;;;4901595;29;20040;-69
2022/09/04 11:29:20;;;;;;;7.65;3.40;;;29.20;47.90;;;;;;4938792;28;20142;-69
2022/09/04 11:32:19;;;;;;;5.75;3.10;;;28.90;48.10;;;;;;4954801;29;20035;-68
2022/09/04 11:35:18;;;;;;;6.53;2.88;;;28.60;48.40;;;;;;4986582;28;20091;-69
2022/09/04 11:37:49;;;;;;;6.20;3.10;;;28.70;48.50;;;;;;4987254;28;20038;-67
2022/09/04 11:41:06;;;;;;;5.78;2.80;;;28.80;48.40;;;;;;4987293;28;20085;-67
2022/09/04 11:43:43;;;;;;;6.03;2.80;;;29.00;48.30;;;;;;4933475;29;20044;-68
2022/09/04 11:46:49;;;;;;;8.85;3.70;;;29.20;48.10;;;;;;4915836;29;20044;-68
2022/09/04 11:49:41;;;;;;;6.57;2.97;;;29.40;47.80;;;;;;4895984;29;20120;-68
2022/09/04 11:52:45;;;;;;;5.45;2.45;;;29.40;47.50;;;;;;4904910;29;20059;-68
2022/09/04 11:55:28;;;;;;;5.25;2.42;;;29.60;47.10;;;;;;4895619;29;20072;-68
2022/09/04 11:58:02;;;;;;;5.88;2.40;;;29.60;46.80;;;;;;4897650;29;20040;-69
2022/09/04 12:00:57;;;;;;;7.88;2.67;;;29.40;46.80;;;;;;4897488;29;20040;-68
2022/09/04 12:04:07;;;;;;;4.80;2.20;;;29.10;46.80;;;;;;4954960;28;20118;-69
2022/09/04 12:07:04;;;;;;;4.43;2.35;;;29.10;47.00;;;;;;4954346;28;20105;-69
2022/09/04 12:09:57;;;;;;;5.07;2.30;;;29.10;46.80;;;;;;4953957;28;20380;-70
2022/09/04 12:12:56;;;;;;;5.63;2.63;;;29.20;46.90;;;;;;4955345;28;20043;-69
2022/09/04 12:15:43;;;;;;;4.43;2.17;;;29.30;46.90;;;;;;4952660;28;20047;-69
2022/09/04 12:18:43;;;;;;;5.05;2.25;;;29.10;46.90;;;;;;4967916;28;20099;-69
2022/09/04 12:21:42;;;;;;;6.05;2.65;;;29.00;47.20;;;;;;5081672;28;20135;-69
2022/09/04 12:24:10;;;;;;;5.57;2.25;;;28.80;47.40;;;;;;5072889;28;20028;-70
2022/09/04 12:26:54;;;;;;;6.07;2.75;;;28.60;47.60;;;;;;5070347;28;20024;-68
2022/09/04 12:29:33;;;;;;;7.78;2.75;;;28.60;47.70;;;;;;5066559;28;20028;-69
2022/09/04 12:32:14;;;;;;;5.97;2.70;;;28.40;47.90;;;;;;5073666;28;20028;-70
2022/09/04 12:35:01;;;;;;;5.07;2.35;;;28.40;48.00;;;;;;5071165;28;20075;-66
2022/09/04 12:37:59;;;;;;;5.38;2.40;;;28.30;48.10;;;;;;5089789;28;20503;-68
2022/09/04 12:40:51;;;;;;;5.90;3.08;;;28.20;48.20;;;;;;5077390;28;20040;-67
2022/09/04 12:43:47;;;;;;;5.30;2.40;;;28.10;48.30;;;;;;5068845;28;20028;-69
2022/09/04 12:46:28;;;;;;;5.32;2.20;;;28.10;48.30;;;;;;5074843;28;20375;-66
2022/09/04 12:49:03;;;;;;;5.75;2.70;;;28.20;48.30;;;;;;5073556;28;20028;-69
2022/09/04 12:51:42;;;;;;;5.00;2.42;;;28.30;48.20;;;;;;5070728;28;20025;-68
2022/09/04 12:54:34;;;;;;;5.50;2.90;;;28.40;48.00;;;;;;5077370;28;20345;-67
2022/09/04 12:57:29;;;;;;;4.13;2.33;;;28.40;47.90;;;;;;5090563;28;20032;-68
2022/09/04 13:00:14;;;;;;;5.20;2.47;;;28.50;47.90;;;;;;5087895;28;20043;-68
2022/09/04 13:02:56;;;;;;;5.00;2.28;;;28.60;47.90;;;;;;5078091;28;20028;-68
2022/09/04 13:05:35;;;;;;;5.43;2.40;;;28.60;47.70;;;;;;5075408;28;20122;-68
2022/09/04 13:08:25;;;;;;;5.15;2.50;;;28.60;47.60;;;;;;5082960;28;20464;-68
2022/09/04 13:11:26;;;;;;;4.63;2.22;;;28.60;47.50;;;;;;5082316;28;20028;-68
2022/09/04 13:14:29;;;;;;;5.70;2.35;;;28.60;47.40;;;;;;5079059;28;20078;-68
2022/09/04 13:17:09;;;;;;;5.18;2.50;;;28.60;47.40;;;;;;5065892;28;20044;-68
2022/09/04 13:20:13;;;;;;;4.83;2.30;;;28.50;47.40;;;;;;5079960;28;20077;-68
2022/09/04 13:23:06;;;;;;;7.00;2.40;;;28.40;47.50;;;;;;5073635;28;20047;-68
2022/09/04 13:25:57;;;;;;;4.63;2.25;;;28.40;47.60;;;;;;5081798;28;20441;-68
2022/09/04 13:28:51;;;;;;;4.95;2.03;;;28.20;47.70;;;;;;5083482;28;20099;-68
2022/09/04 13:31:17;;;;;;;5.68;2.47;;;28.20;47.80;;;;;;5078586;28;20669;-67
2022/09/04 13:33:53;;;;;;;5.47;2.17;;;28.20;47.90;;;;;;5087106;28;20021;-67
2022/09/04 13:36:34;;;;;;;6.03;2.45;;;28.20;47.90;;;;;;5078670;28;20191;-68
2022/09/04 13:39:30;;;;;;;6.50;2.80;;;28.20;48.00;;;;;;5068946;28;20055;-68
2022/09/04 13:42:32;;;;;;;5.45;2.33;;;28.20;48.00;;;;;;5068587;28;20020;-68
2022/09/04 13:45:18;;;;;;;5.80;2.45;;;28.10;48.20;;;;;;5074633;28;20115;-64
2022/09/04 13:47:53;;;;;;;4.68;2.15;;;28.10;48.10;;;;;;5050330;28;20078;-64
2022/09/04 13:50:25;;;;;;;5.28;2.60;;;28.00;48.00;;;;;;5090022;28;20028;-64
2022/09/04 13:53:06;;;;;;;5.85;2.13;;;28.00;48.10;;;;;;5075754;28;20365;-64
2022/09/04 13:55:37;;;;;;;5.85;2.50;;;28.00;48.30;;;;;;5090583;28;20040;-64
2022/09/04 13:58:14;;;;;;;5.72;2.30;;;28.00;48.30;;;;;;5086519;28;20114;-65
2022/09/04 14:00:44;;;;;;;7.13;2.38;;;27.90;48.20;;;;;;5074594;28;20353;-67
2022/09/04 14:03:28;;;;;;;3.75;2.05;;;27.90;48.40;;;;;;5062805;28;20042;-68
2022/09/04 14:05:54;;;;;;;4.90;1.95;;;27.90;48.40;;;;;;5064817;28;20101;-68
2022/09/04 14:08:22;;;;;;;5.15;2.00;;;27.90;48.50;;;;;;5089951;28;20024;-68
2022/09/04 14:10:54;;;;;;;4.15;2.03;;;27.90;48.40;;;;;;5068972;28;20028;-67
2022/09/04 14:13:40;;;;;;;3.83;1.85;;;27.90;48.50;;;;;;5087889;28;20039;-67
2022/09/04 14:16:13;;;;;;;5.30;2.00;;;27.90;48.60;;;;;;5089854;28;20048;-67
2022/09/04 14:19:10;;;;;;;3.30;1.40;;;27.90;48.40;;;;;;5075464;28;20033;-67
2022/09/04 14:22:06;;;;;;;3.97;2.00;;;27.90;48.00;;;;;;5071815;28;20465;-68
2022/09/04 14:24:55;;;;;;;3.53;1.65;;;27.90;48.20;;;;;;5090718;28;20024;-67